• Join FlightAware (Why Join?)
  • Login
  • US Flag 
06:56PM EDT


 

Airport Tracker/Info


-or-


 

Live Flight TrackerFlight Track Log ✈ VP-BLX ✈ 21-Nov-2013 ✈ KMIA - UUEE / SVO

Flight Track Log - Related Links

Times and Time Zones

All times are in EST time to prevent confusion due to time zone crossing. See the VP-BLX flight status page for this flight to view local times or setup timezone preferences in your user account.

Time Position Orientation Groundspeed Altitude Reporting Facility
EST Latitude Longitude Course Direction KTS MPH feet Rate Location/Type
05:52PM 25.7983 -80.2631 125° Southeast 153 176 1,200  Level Miami Center
05:52PM 25.7864 -80.2442 125° Southeast 171 197 2,400 1,560 Climbing Miami Center
05:53PM 25.7858 -80.1725 90° East 238 274 3,800 1,740 Climbing Miami Center
05:54PM 25.7936 -80.1014 83° East 257 296 6,000 1,980 Climbing Miami Center
05:54PM 25.7978 -80.1061 314° West 250 288 5,700 2,520 Descending Miami Center
05:55PM 25.8267 -80.0214 69° East 278 320 8,600 2,580 Climbing Miami Center
05:55PM 25.8331 -80.0169 32° Northeast 276 318 8,300 2,040 Descending Miami Center
05:56PM 25.8700 -79.9486 59° Northeast 289 333 10,700 1,860 Climbing Miami Center
05:57PM 25.9136 -79.8667 59° Northeast 357 411 12,100 1,920 Climbing Miami Center
05:58PM 25.9758 -79.7850 50° Northeast 346 398 14,600 2,160 Climbing Miami Center
05:59PM 26.0422 -79.7011 49° Northeast 346 398 16,500 1,920 Climbing Miami Center
06:00PM 26.1108 -79.6172 48° Northeast 352 405 18,500 1,800 Climbing Miami Center
06:01PM 26.1894 -79.5472 39° Northeast 357 411 20,200 1,740 Climbing Miami Center
06:02PM 26.2928 -79.4822 29° Northeast 377 434 22,000 1,440 Climbing Miami Center
06:03PM 26.3922 -79.4219 28° Northeast 391 450 23,100 900 Climbing Miami Center
06:04PM 26.5019 -79.3544 29° Northeast 430 495 23,800 900 Climbing Miami Center
06:05PM 26.6136 -79.2872 28° Northeast 447 514 25,000 1,140 Climbing Miami Center
06:06PM 26.7192 -79.2219 29° Northeast 464 534 26,100 1,020 Climbing Miami Center
06:07PM 26.8353 -79.1497 29° Northeast 469 540 27,100 1,020 Climbing Miami Center
06:08PM 26.9597 -79.0775 27° Northeast 474 545 28,200 840 Climbing Miami Center
06:14PM 27.7257 -78.7496 27° Northeast 465 535 33,000 720 Climbing FlightAware ADS-B (KMIA)
06:15PM 27.7851 -78.7410 North 464 534 33,000  Level FlightAware ADS-B (KMIA)
06:15PM 27.8394 -78.7353 North 464 534 33,000  Level Miami Center
06:16PM 27.9711 -78.7186 North 464 534 33,000  Level Miami Center
06:17PM 28.0989 -78.6994 North 464 534 33,000  Level Miami Center
06:18PM 28.2286 -78.6806 North 464 534 33,000  Level Miami Center
06:19PM 28.3625 -78.6592 North 469 540 33,000  Level Miami Center
06:20PM 28.4900 -78.6397 North 469 540 33,000  Level Miami Center
06:21PM 28.6239 -78.6206 North 469 540 33,000  Level Miami Center
06:22PM 28.7556 -78.6014 North 469 540 33,000  Level Miami Center
06:23PM 28.8808 -78.5797 North 469 540 33,000  Level Miami Center
06:24PM 29.0106 -78.5603 North 469 540 33,000  Level Miami Center
06:25PM 29.1483 -78.5433 North 470 541 33,000  Level Miami Center
06:26PM 29.2800 -78.5264 North 465 535 33,000  Level Miami Center
06:27PM 29.4033 -78.5022 10° North 465 535 33,000  Level Miami Center
06:28PM 29.5350 -78.4875 North 465 535 33,000  Level Miami Center
06:29PM 29.6583 -78.4653 North 459 528 33,000  Level Miami Center
06:30PM 29.7900 -78.4481 North 464 534 33,000  Level Miami Center
06:31PM 29.9086 -78.4242 10° North 469 540 33,000  Level Jacksonville Center
06:32PM 30.0375 -78.4086 North 468 539 33,000  Level Jacksonville Center
06:33PM 30.1617 -78.3836 10° North 463 533 33,000  Level Jacksonville Center
06:34PM 30.3053 -78.3672 North 463 533 33,000  Level Jacksonville Center
06:35PM 30.4358 -78.3467 North 463 533 33,000  Level Jacksonville Center
06:36PM 30.5644 -78.3189 11° North 471 542 33,000  Level Jacksonville Center
06:37PM 30.6906 -78.2911 11° North 468 539 33,000  Level Jacksonville Center
06:38PM 30.8147 -78.2608 12° North 462 532 33,000  Level Jacksonville Center
06:39PM 30.9494 -78.2347 North 467 537 33,000  Level Jacksonville Center
06:40PM 31.0633 -78.2050 13° North 461 531 33,000  Level Jacksonville Center
06:41PM 31.1897 -78.1792 10° North 461 531 33,000  Level Jacksonville Center
06:42PM 31.3178 -78.1483 12° North 466 536 33,000  Level Jacksonville Center
06:43PM 31.4461 -78.1200 11° North 466 536 33,000  Level Jacksonville Center
06:44PM 31.5728 -78.0964 North 466 536 33,000  Level Jacksonville Center
06:45PM 31.6989 -78.0681 11° North 466 536 33,000  Level Jacksonville Center
06:46PM 31.8272 -78.0392 11° North 466 536 33,000  Level Jacksonville Center
06:47PM 31.9517 -78.0181 North 466 536 33,000  Level Jacksonville Center
06:48PM 32.0797 -77.9842 13° North 466 536 33,000  Level Jacksonville Center
06:49PM 32.2042 -77.9628 North 461 531 33,000  Level Jacksonville Center
06:50PM 32.3303 -77.9314 12° North 461 531 33,000  Level Jacksonville Center
06:51PM 32.4564 -77.9050 10° North 461 531 33,000  Level Jacksonville Center
06:52PM 32.5808 -77.8808 North 461 531 33,000  Level Jacksonville Center
06:53PM 32.7050 -77.8542 10° North 461 531 33,000  Level Jacksonville Center
06:54PM 32.8292 -77.8275 10° North 461 531 33,000  Level Jacksonville Center
06:57PM 33.1383 -77.7614 10° North 450 518 33,000  Level Washington Center
06:58PM 33.2597 -77.7347 10° North 450 518 33,000  Level Washington Center
06:59PM 33.4022 -77.7036 10° North 460 529 33,000  Level Washington Center
07:00PM 33.5258 -77.6792 North 460 529 33,000  Level Washington Center
07:01PM 33.6494 -77.6497 11° North 455 524 33,000  Level Washington Center
07:02PM 33.7769 -77.6231 10° North 449 517 33,000  Level Washington Center
07:03PM 33.8983 -77.5961 10° North 449 517 33,000  Level Washington Center
07:04PM 34.0242 -77.5714 North 449 517 33,000  Level Washington Center
07:05PM 34.1517 -77.5444 10° North 454 522 33,000  Level Washington Center
07:06PM 34.2753 -77.5197 North 454 522 33,000  Level Washington Center
07:07PM 34.4008 -77.4925 10° North 449 517 33,000  Level Washington Center
07:08PM 34.5244 -77.4650 10° North 449 517 33,000  Level Washington Center
07:09PM 34.6442 -77.4147 19° North 449 517 33,000  Level Washington Center
07:10PM 34.7639 -77.3542 23° Northeast 454 522 33,000  Level Washington Center
07:11PM 34.8797 -77.2883 25° Northeast 454 522 33,000  Level Washington Center
07:12PM 34.9972 -77.2250 24° Northeast 454 522 33,000  Level Washington Center
07:13PM 35.1150 -77.1639 23° Northeast 459 528 33,000  Level Washington Center
07:14PM 35.2264 -77.1050 23° Northeast 464 534 33,000  Level Washington Center
07:15PM 35.3419 -77.0461 23° Northeast 464 534 33,000  Level Washington Center
07:16PM 35.4617 -76.9792 24° Northeast 459 528 33,000  Level Washington Center
07:17PM 35.5769 -76.9175 24° Northeast 459 528 33,000  Level Washington Center
07:18PM 35.6967 -76.8556 23° Northeast 459 528 33,000  Level Washington Center
07:19PM 35.8119 -76.7908 24° Northeast 459 528 33,000  Level Washington Center
07:20PM 35.9317 -76.7258 24° Northeast 459 528 33,000  Level Washington Center
07:21PM 36.0700 -76.6533 23° Northeast 459 528 33,000  Level Washington Center
07:22PM 36.1853 -76.5906 24° Northeast 459 528 33,000  Level Washington Center
07:23PM 36.3006 -76.5250 25° Northeast 454 522 33,000  Level Washington Center
07:24PM 36.4136 -76.4644 23° Northeast 447 514 33,000  Level Washington Center
07:25PM 36.5289 -76.4036 23° Northeast 442 509 33,000  Level Washington Center
07:26PM 36.6461 -76.3400 24° Northeast 442 509 33,000  Level Washington Center
07:27PM 36.7717 -76.2661 25° Northeast 442 509 33,000  Level Washington Center
07:28PM 36.8867 -76.2022 24° Northeast 442 509 33,000  Level Washington Center
07:29PM 36.9956 -76.1511 21° North 442 509 33,000  Level Washington Center
07:35PM 37.6876 -75.6489 21° North 458 527 33,000  Level FlightAware ADS-B (KSBY)
07:36PM 37.7456 -75.6028 32° Northeast 458 527 33,000  Level FlightAware ADS-B (KSBY)
07:36PM 37.8131 -75.5493 32° Northeast 459 528 33,000  Level FlightAware ADS-B (KSBY)
07:37PM 37.9001 -75.4800 32° Northeast 460 529 33,000  Level FlightAware ADS-B (KSBY)
07:38PM 37.9581 -75.4337 32° Northeast 460 529 33,000  Level FlightAware ADS-B (KSBY)
07:38PM 38.0385 -75.3694 32° Northeast 462 532 33,000  Level FlightAware ADS-B (KSBY)
07:39PM 38.0964 -75.3230 32° Northeast 463 533 33,000  Level FlightAware ADS-B (KSBY)
07:40PM 38.1369 -75.2904 32° Northeast 464 534 33,000  Level FlightAware ADS-B (KSBY)
07:40PM 38.2332 -75.2129 32° Northeast 465 535 33,000  Level FlightAware ADS-B (KSBY)
07:41PM 38.2766 -75.1779 32° Northeast 465 535 33,000  Level FlightAware ADS-B (KSBY)
07:42PM 38.3666 -75.1050 32° Northeast 464 534 33,000  Level FlightAware ADS-B (KSBY)
07:42PM 38.4432 -75.0430 32° Northeast 465 535 33,000  Level FlightAware ADS-B (KSBY)
07:43PM 38.4975 -74.9988 32° Northeast 468 539 33,000  Level FlightAware ADS-B (KSBY)
07:44PM 38.5937 -74.9205 32° Northeast 467 537 33,000  Level FlightAware ADS-B (KSBY)
07:47PM 38.7767 -74.7706 33° Northeast 463 533 33,000  Level FlightAware ADS-B (KSBY)
07:50PM 39.3307 -74.3115 33° Northeast 455 524 33,000  Level FlightAware ADS-B (KSBY)
07:52PM 39.4605 -74.2026 33° Northeast 452 520 33,000  Level FlightAware ADS-B (KOQN)
07:53PM 39.6064 -74.0789 33° Northeast 451 519 33,000  Level Boston Center
07:54PM 39.7114 -73.9903 33° Northeast 453 521 33,000  Level Boston Center
07:55PM 39.8153 -73.9025 33° Northeast 450 518 33,000  Level Boston Center
08:01PM 40.4242 -73.3787 33° Northeast 457 526 33,000  Level FlightAware ADS-B (KSNC)
08:01PM 40.4923 -73.3194 34° Northeast 456 525 33,000  Level FlightAware ADS-B (KSNC)
08:02PM 40.5523 -73.2670 34° Northeast 457 526 33,000  Level FlightAware ADS-B (KSNC)
08:03PM 40.6164 -73.2108 34° Northeast 457 526 33,000  Level FlightAware ADS-B (KSNC)
08:03PM 40.6739 -73.1605 34° Northeast 458 527 33,000  Level FlightAware ADS-B (KSNC)
08:04PM 40.7306 -73.1107 34° Northeast 459 528 33,000  Level FlightAware ADS-B (KSNC)
08:04PM 40.7840 -73.0636 34° Northeast 460 529 33,000  Level FlightAware ADS-B (KSNC)
08:05PM 40.8403 -73.0140 34° Northeast 461 531 33,000  Level FlightAware ADS-B (KSNC)
08:05PM 40.8946 -72.9659 34° Northeast 461 531 33,000  Level FlightAware ADS-B (KSNC)
08:06PM 40.9699 -72.8993 34° Northeast 462 532 33,000  Level FlightAware ADS-B (KSNC)
08:07PM 41.0608 -72.8277 31° Northeast 455 524 33,000  Level FlightAware ADS-B (KSNC)
08:07PM 41.1183 -72.7874 28° Northeast 455 524 33,000  Level FlightAware ADS-B (KSNC)
08:08PM 41.1842 -72.7419 27° Northeast 453 521 33,000  Level FlightAware ADS-B
08:08PM 41.2414 -72.7030 27° Northeast 453 521 33,000  Level FlightAware ADS-B (KSNC)
08:09PM 41.3331 -72.6394 27° Northeast 455 524 33,000  Level FlightAware ADS-B (KSNC)
08:10PM 41.3925 -72.5981 28° Northeast 457 526 33,000  Level FlightAware ADS-B (KSNC)
08:10PM 41.4469 -72.5600 28° Northeast 459 528 33,000  Level FlightAware ADS-B (KSNC)
08:11PM 41.5166 -72.5112 28° Northeast 459 528 33,000  Level FlightAware ADS-B (KSNC)
08:11PM 41.5727 -72.4720 28° Northeast 458 527 33,000  Level FlightAware ADS-B (KSNC)
08:12PM 41.6357 -72.4276 28° Northeast 457 526 33,000  Level FlightAware ADS-B (KSNC)
08:12PM 41.6947 -72.3860 28° Northeast 456 525 33,000  Level FlightAware ADS-B
08:13PM 41.7424 -72.3522 28° Northeast 456 525 33,000  Level FlightAware ADS-B (KSNC)
08:14PM 41.8190 -72.2980 28° Northeast 455 524 33,000  Level FlightAware ADS-B (KSNC)
08:14PM 41.8749 -72.2584 28° Northeast 454 522 33,000  Level FlightAware ADS-B (KSNC)
08:15PM 42.0062 -72.1648 28° Northeast 454 522 33,000  Level FlightAware ADS-B
08:16PM 42.0260 -72.1508 28° Northeast 455 524 33,000  Level FlightAware ADS-B
08:16PM 42.1366 -72.0716 28° Northeast 456 525 33,000  Level FlightAware ADS-B
08:17PM 42.1981 -72.0274 28° Northeast 456 525 33,000  Level FlightAware ADS-B
08:18PM 42.2586 -71.9839 28° Northeast 455 524 33,000  Level FlightAware ADS-B
08:18PM 42.3199 -71.9398 28° Northeast 454 522 33,000  Level FlightAware ADS-B
08:19PM 42.3835 -71.8940 28° Northeast 456 525 33,000  Level FlightAware ADS-B (KBOS)
08:19PM 42.4030 -71.8799 28° Northeast 454 522 33,000  Level FlightAware ADS-B (KBOS)
08:20PM 42.5374 -71.7823 28° Northeast 453 521 33,000  Level FlightAware ADS-B
08:21PM 42.5945 -71.7408 28° Northeast 453 521 33,000  Level FlightAware ADS-B
08:21PM 42.6551 -71.6965 28° Northeast 454 522 33,000  Level FlightAware ADS-B (KBOS)
08:22PM 42.7182 -71.6503 28° Northeast 454 522 33,000  Level FlightAware ADS-B (KBOS)
08:22PM 42.7733 -71.6099 28° Northeast 454 522 33,000  Level FlightAware ADS-B (KBOS)
08:23PM 42.8296 -71.5686 28° Northeast 454 522 33,000  Level FlightAware ADS-B (KBOS)
08:23PM 42.8751 -71.5350 28° Northeast 452 520 33,000  Level FlightAware ADS-B
08:24PM 42.9321 -71.4930 28° Northeast 442 509 33,000  Level FlightAware ADS-B
08:24PM 42.9869 -71.4525 28° Northeast 441 507 33,000  Level FlightAware ADS-B
08:25PM 43.0401 -71.4132 28° Northeast 440 506 33,000  Level FlightAware ADS-B
08:25PM 43.0909 -71.3756 28° Northeast 448 516 33,000  Level FlightAware ADS-B
08:26PM 43.1515 -71.3305 28° Northeast 449 517 33,000  Level FlightAware ADS-B
08:26PM 43.2119 -71.2856 28° Northeast 450 518 33,000  Level FlightAware ADS-B (KBOS)
08:27PM 43.2693 -71.2427 29° Northeast 451 519 33,000  Level FlightAware ADS-B (KBOS)
08:27PM 43.3348 -71.1937 29° Northeast 441 507 33,000  Level FlightAware ADS-B
08:28PM 43.3909 -71.1516 29° Northeast 447 514 33,000  Level FlightAware ADS-B
08:28PM 43.4060 -71.1400 29° Northeast 448 516 33,000  Level FlightAware ADS-B
08:28PM 43.4512 -71.1062 28° Northeast 440 506 33,000  Level FlightAware ADS-B
08:29PM 43.4760 -71.0870 29° Northeast 448 516 33,000  Level FlightAware ADS-B
08:29PM 43.5214 -71.0533 28° Northeast 448 516 33,000  Level FlightAware ADS-B (KBOS)
08:29PM 43.5310 -71.0460 29° Northeast 449 517 33,000  Level FlightAware ADS-B
08:30PM 43.5732 -71.0141 29° Northeast 449 517 33,000  Level FlightAware ADS-B (KBOS)
08:30PM 43.5950 -70.9970 30° Northeast 451 519 33,000  Level FlightAware ADS-B
08:30PM 43.6334 -70.9686 28° Northeast 443 510 33,000  Level FlightAware ADS-B
08:30PM 43.6760 -70.9360 29° Northeast 450 518 33,000  Level FlightAware ADS-B
08:31PM 43.6885 -70.9267 28° Northeast 442 509 33,000  Level FlightAware ADS-B
08:31PM 43.7586 -70.8735 29° Northeast 448 516 33,000  Level FlightAware ADS-B (KBOS)
08:32PM 43.8094 -70.8348 29° Northeast 449 517 33,000  Level FlightAware ADS-B (KBOS)
08:32PM 43.8671 -70.7907 29° Northeast 450 518 33,000  Level FlightAware ADS-B (KBOS)
08:33PM 43.9232 -70.7478 29° Northeast 453 521 33,000  Level FlightAware ADS-B (KBOS)
08:33PM 43.9781 -70.7056 29° Northeast 455 524 33,000  Level FlightAware ADS-B (KBOS)
08:34PM 44.0312 -70.6648 29° Northeast 457 526 33,000  Level FlightAware ADS-B (KBOS)
08:34PM 44.0898 -70.6197 29° Northeast 455 524 33,000  Level FlightAware ADS-B (KBOS)
08:35PM 44.1415 -70.5798 29° Northeast 454 522 33,000  Level FlightAware ADS-B (KBOS)
08:36PM 44.2366 -70.5061 29° Northeast 454 522 33,000  Level FlightAware ADS-B (KBOS)
08:36PM 44.3077 -70.4508 29° Northeast 455 524 33,000  Level FlightAware ADS-B (KBOS)
08:37PM 44.3636 -70.4073 29° Northeast 454 522 33,000  Level FlightAware ADS-B (KBOS)
08:37PM 44.4194 -70.3638 29° Northeast 454 522 33,000  Level FlightAware ADS-B (KBOS)
08:38PM 44.4745 -70.3207 29° Northeast 454 522 33,000  Level FlightAware ADS-B (KBOS)
08:38PM 44.5298 -70.2773 29° Northeast 453 521 33,000  Level FlightAware ADS-B (KBOS)
08:39PM 44.5807 -70.2373 29° Northeast 451 519 33,000  Level FlightAware ADS-B (KBOS)
08:39PM 44.6190 -70.2071 29° Northeast 451 519 33,000  Level FlightAware ADS-B (CYQI)
08:40PM 44.7107 -70.1348 29° Northeast 451 519 33,000  Level FlightAware ADS-B (CYSG)
08:40PM 44.7584 -70.0972 29° Northeast 450 518 33,000  Level FlightAware ADS-B (CYSG)
08:41PM 44.8327 -70.0382 29° Northeast 448 516 33,000  Level FlightAware ADS-B (CYSG)
08:42PM 44.9123 -69.9747 29° Northeast 448 516 33,000  Level FlightAware ADS-B (CYSG)
08:43PM 44.9965 -69.9076 29° Northeast 452 520 33,000  Level FlightAware ADS-B (CYSG)
08:43PM 45.0570 -69.8592 29° Northeast 453 521 33,000  Level FlightAware ADS-B (CYSG)
08:44PM 45.1009 -69.8240 29° Northeast 456 525 33,000  Level FlightAware ADS-B (CYSG)
08:44PM 45.1882 -69.7537 30° Northeast 458 527 33,000  Level FlightAware ADS-B (CYSG)
08:45PM 45.2571 -69.6981 30° Northeast 456 525 33,000  Level FlightAware ADS-B (CYSG)
08:46PM 45.3145 -69.6516 30° Northeast 456 525 33,000  Level FlightAware ADS-B (CYSG)
08:46PM 45.4016 -69.5809 30° Northeast 456 525 33,000  Level FlightAware ADS-B (CYSG)
08:47PM 45.4607 -69.5327 30° Northeast 456 525 33,000  Level FlightAware ADS-B (CYSG)
08:47PM 45.5271 -69.4786 30° Northeast 457 526 33,000  Level FlightAware ADS-B (CYSG)
08:48PM 45.6335 -69.3913 30° Northeast 459 528 33,000  Level FlightAware ADS-B (CYQI)
08:49PM 45.7416 -69.3025 30° Northeast 461 531 33,000  Level FlightAware ADS-B (CYSG)
08:51PM 45.9625 -69.1195 30° Northeast 461 531 33,000  Level FlightAware ADS-B (CYSG)
08:53PM 46.1049 -69.0006 30° Northeast 469 540 33,000  Level FlightAware ADS-B (CYSG)
08:53PM 46.1892 -68.9297 30° Northeast 469 540 33,000  Level FlightAware ADS-B (CYSG)
08:54PM 46.2853 -68.8492 30° Northeast 470 541 33,000  Level Boston Center
08:55PM 46.3983 -68.7533 30° Northeast 468 539 33,000  Level Boston Center
08:56PM 46.5117 -68.6575 30° Northeast 469 540 33,000  Level Boston Center
08:57PM 46.6247 -68.5608 30° Northeast 470 541 33,000  Level Boston Center
08:58PM 46.7372 -68.4636 31° Northeast 468 539 33,000  Level Boston Center
09:04PM 47.3521 -67.9273 31° Northeast 470 541 33,000  Level FlightAware ADS-B (CYSG)
09:05PM 47.4417 -67.8482 31° Northeast 472 543 33,000  Level FlightAware ADS-B (CYSG)
09:05PM 47.5008 -67.7957 31° Northeast 474 545 33,000  Level FlightAware ADS-B (CYSG)
09:06PM 47.5667 -67.7167 31° Northeast 470 541 33,000  Level Moncton Center
09:07PM 47.6833 -67.6333 26° Northeast 480 552 33,000  Level Moncton Center
09:08PM 47.8000 -67.5333 30° Northeast 470 541 33,000  Level Moncton Center
09:09PM 47.9167 -67.4500 26° Northeast 470 541 33,000  Level Moncton Center
09:10PM 48.0333 -67.3500 30° Northeast 470 541 33,000  Level Moncton Center
09:11PM 48.1500 -67.2833 21° North 470 541 33,000  Level Moncton Center
09:12PM 48.2667 -67.1833 30° Northeast 470 541 33,000  Level Moncton Center
09:13PM 48.3667 -67.1000 29° Northeast 470 541 33,000  Level Moncton Center
09:15PM 48.5667 -66.9167 31° Northeast 470 541 33,000  Level Gander Center
09:16PM 48.7000 -66.8333 22° Northeast 470 541 33,000  Level Gander Center
09:17PM 48.8333 -66.7167 30° Northeast 460 529 33,000  Level Moncton Center
09:18PM 48.9333 -66.6167 33° Northeast 460 529 33,000  Level Moncton Center
09:19PM 49.0500 -66.5167 29° Northeast 460 529 33,000  Level Moncton Center
09:20PM 49.1667 -66.4167 29° Northeast 460 529 33,000  Level Moncton Center
09:21PM 49.2833 -66.3167 29° Northeast 460 529 33,000  Level Moncton Center
09:22PM 49.3833 -66.2333 28° Northeast 460 529 33,000  Level Gander Center
09:23PM 49.5000 -66.1500 25° Northeast 460 529 33,000  Level Gander Center
09:24PM 49.6000 -66.0500 33° Northeast 460 529 33,000  Level Gander Center
09:25PM 49.7000 -65.9667 28° Northeast 460 529 33,000  Level Gander Center
09:26PM 49.8333 -65.8667 26° Northeast 460 529 33,000  Level Gander Center
09:27PM 49.9333 -65.7833 28° Northeast 460 529 33,000  Level Gander Center
09:28PM 50.0500 -65.6833 29° Northeast 460 529 33,000  Level Gander Center
09:29PM 50.1500 -65.5667 37° Northeast 460 529 33,000  Level Gander Center
09:30PM 50.2667 -65.4667 29° Northeast 460 529 33,000  Level Gander Center
09:31PM 50.3833 -65.3667 29° Northeast 460 529 33,000  Level Gander Center
09:32PM 50.4833 -65.2833 28° Northeast 460 529 33,000  Level Gander Center
09:33PM 50.6000 -65.1833 29° Northeast 460 529 33,000  Level Gander Center
09:34PM 50.7167 -65.0833 28° Northeast 450 518 33,000  Level Gander Center
09:35PM 50.8333 -64.9833 28° Northeast 450 518 33,000  Level Gander Center
09:36PM 50.9333 -64.8833 32° Northeast 450 518 33,000  Level Gander Center
09:37PM 51.0333 -64.8000 28° Northeast 450 518 33,000  Level Gander Center
09:38PM 51.1500 -64.7000 28° Northeast 460 529 33,000  Level Gander Center
09:39PM 51.2667 -64.6000 28° Northeast 460 529 33,000  Level Gander Center
09:40PM 51.3667 -64.4667 40° Northeast 460 529 33,000  Level Gander Center
09:41PM 51.4833 -64.3667 28° Northeast 460 529 33,000  Level Gander Center
09:42PM 51.5833 -64.2667 32° Northeast 460 529 33,000  Level Gander Center
09:43PM 51.6833 -64.1667 32° Northeast 460 529 33,000  Level Gander Center
09:44PM 51.8167 -64.0667 25° Northeast 460 529 33,000  Level Gander Center
09:45PM 51.9333 -63.9333 35° Northeast 460 529 33,000  Level Moncton Center
09:46PM 52.0333 -63.8333 32° Northeast 450 518 33,000  Level Moncton Center
09:47PM 52.1333 -63.7667 22° Northeast 450 518 33,000  Level Gander Center
09:48PM 52.2333 -63.6333 39° Northeast 460 529 33,000  Level Gander Center
09:49PM 52.3333 -63.5000 39° Northeast 460 529 33,000  Level Gander Center
09:50PM 52.4500 -63.3667 35° Northeast 450 518 33,000  Level Gander Center
09:51PM 52.5500 -63.2667 31° Northeast 460 529 33,000  Level Gander Center
09:52PM 52.6500 -63.1333 39° Northeast 460 529 33,000  Level Gander Center
09:53PM 52.7500 -63.0000 39° Northeast 460 529 33,000  Level Gander Center
09:54PM 52.8500 -62.8833 35° Northeast 460 529 33,000  Level Gander Center
09:55PM 52.9500 -62.7500 39° Northeast 460 529 33,000  Level Gander Center
09:56PM 53.0500 -62.6167 39° Northeast 460 529 33,000  Level Gander Center
09:57PM 53.1500 -62.4833 39° Northeast 460 529 33,000  Level Gander Center
09:58PM 53.2500 -62.3667 35° Northeast 450 518 33,000  Level Gander Center
09:59PM 53.3667 -62.2333 34° Northeast 460 529 33,000  Level Gander Center
10:00PM 53.4667 -62.1000 38° Northeast 460 529 33,000  Level Gander Center
10:01PM 53.5667 -61.9833 35° Northeast 460 529 33,000  Level Gander Center
10:02PM 53.6667 -61.8500 38° Northeast 460 529 33,000  Level Gander Center
10:03PM 53.7667 -61.7000 42° Northeast 460 529 33,000  Level Gander Center
10:04PM 53.8667 -61.5667 38° Northeast 460 529 33,000  Level Gander Center
10:05PM 53.9667 -61.4500 34° Northeast 460 529 33,000  Level Gander Center
10:06PM 54.0500 -61.3167 43° Northeast 460 529 33,000  Level Gander Center
10:07PM 54.1667 -61.1667 37° Northeast 460 529 33,000  Level Gander Center
10:08PM 54.2667 -61.0500 34° Northeast 460 529 33,000  Level Gander Center
10:09PM 54.3667 -60.9167 38° Northeast 460 529 33,000  Level Gander Center
10:10PM 54.4667 -60.7667 41° Northeast 460 529 33,000  Level Gander Center
10:11PM 54.5667 -60.6167 41° Northeast 460 529 33,000  Level Gander Center
10:12PM 54.6667 -60.5000 34° Northeast 460 529 33,000  Level Gander Center
10:13PM 54.7667 -60.3500 41° Northeast 460 529 33,000  Level Gander Center
10:14PM 54.8667 -60.2000 41° Northeast 460 529 33,000  Level Gander Center
10:15PM 54.9667 -60.0833 34° Northeast 460 529 33,000  Level Gander Center
10:16PM 55.0667 -59.9333 41° Northeast 460 529 33,000  Level Gander Center
10:17PM 55.1500 -59.7833 46° Northeast 460 529 33,000  Level Gander Center
10:18PM 55.2500 -59.6333 41° Northeast 460 529 33,000  Level Gander Center
10:19PM 55.3500 -59.5167 34° Northeast 460 529 33,000  Level Gander Center
10:20PM 55.4500 -59.3667 40° Northeast 460 529 33,000  Level Gander Center
10:21PM 55.5500 -59.2167 40° Northeast 460 529 33,000  Level Gander Center
10:22PM 55.6500 -59.1000 33° Northeast 460 529 33,000  Level Gander Center
10:23PM 55.7500 -58.9167 46° Northeast 460 529 33,000  Level Gander Center
10:24PM 55.8500 -58.7833 37° Northeast 460 529 33,000  Level Gander Center
10:25PM 55.9333 -58.6333 45° Northeast 460 529 33,000  Level Gander Center
10:26PM 56.0333 -58.4667 43° Northeast 460 529 33,000  Level Gander Center
10:27PM 56.1333 -58.3500 33° Northeast 470 541 33,000  Level Gander Center
10:28PM 56.2333 -58.1500 48° Northeast 470 541 33,000  Level Gander Center
10:29PM 56.3333 -58.0333 33° Northeast 470 541 33,000  Level Gander Center
10:30PM 56.4167 -57.8333 53° Northeast 470 541 33,000  Level Gander Center
10:31PM 56.5167 -57.6833 40° Northeast 480 552 33,000  Level Gander Center
10:32PM 56.6167 -57.4833 48° Northeast 480 552 33,000  Level Gander Center
10:33PM 56.7000 -57.3333 45° Northeast 480 552 33,000  Level Gander Center
10:34PM 56.7667 -57.1667 54° Northeast 490 564 33,000  Level Gander Center
10:35PM 56.8667 -56.9833 45° Northeast 490 564 33,000  Level Gander Center
10:36PM 56.9667 -56.8167 42° Northeast 470 541 33,000  Level Gander Center
10:37PM 57.0333 -56.6500 54° Northeast 470 541 33,000  Level Gander Center
10:38PM 57.1500 -56.4167 47° Northeast 490 564 33,000  Level Gander Center
10:39PM 57.2333 -56.2500 47° Northeast 490 564 33,000  Level Gander Center
10:40PM 57.3833 -55.9833 44° Northeast 430 495 33,000  Level Gander Center
10:41PM 57.4667 -55.7833 52° Northeast 450 518 33,000  Level Gander Center
10:42PM 57.5667 -55.5833 47° Northeast 510 587 33,000  Level Gander Center
10:43PM 57.6333 -55.4167 53° Northeast 500 575 33,000  Level Gander Center
10:44PM 57.7333 -55.2167 47° Northeast 490 564 33,000  Level Gander Center
10:45PM 57.8333 -55.0167 47° Northeast 490 564 33,000  Level Gander Center
10:46PM 57.9167 -54.8500 47° Northeast 490 564 33,000  Level Gander Center
10:47PM 58.0167 -54.6333 49° Northeast 500 575 33,000  Level Gander Center
10:50PM 58.1922 -54.2584 48° Northeast  Level FlightAware Approximate
10:57PM 58.8131 -52.8818 49° Northeast  Level FlightAware Approximate
10:58PM 58.9006 -52.6811 50° Northeast  Level FlightAware Approximate
10:59PM 58.9878 -52.4794 50° Northeast  Level FlightAware Approximate
11:00PM 59.0746 -52.2767 50° Northeast  Level FlightAware Approximate
11:01PM 59.1612 -52.0730 50° Northeast  Level FlightAware Approximate
11:02PM 59.2474 -51.8682 50° Northeast  Level FlightAware Approximate
11:03PM 59.3333 -51.6624 51° Northeast  Level FlightAware Approximate
11:04PM 59.4188 -51.4556 51° Northeast  Level FlightAware Approximate
11:05PM 59.5041 -51.2477 51° Northeast  Level FlightAware Approximate
11:06PM 59.5890 -51.0388 51° Northeast  Level FlightAware Approximate
11:07PM 59.6736 -50.8288 51° Northeast  Level FlightAware Approximate
11:08PM 59.7578 -50.6177 52° Northeast  Level FlightAware Approximate
11:09PM 59.8417 -50.4056 52° Northeast  Level FlightAware Approximate
11:10PM 59.9252 -50.1924 52° Northeast  Level FlightAware Approximate
11:11PM 60.0062 -49.9755 63° Northeast  Level FlightAware Approximate
11:12PM 60.0670 -49.7325 63° Northeast  Level FlightAware Approximate
11:13PM 60.1273 -49.4887 63° Northeast  Level FlightAware Approximate
11:14PM 60.1872 -49.2439 64° Northeast  Level FlightAware Approximate
11:15PM 60.2467 -48.9983 64° Northeast  Level FlightAware Approximate
11:16PM 60.3057 -48.7517 64° Northeast  Level FlightAware Approximate
11:17PM 60.3643 -48.5043 64° Northeast  Level FlightAware Approximate
11:18PM 60.4223 -48.2560 65° Northeast  Level FlightAware Approximate
11:19PM 60.4800 -48.0068 65° Northeast  Level FlightAware Approximate
11:20PM 60.5371 -47.7567 65° Northeast  Level FlightAware Approximate
11:21PM 60.5938 -47.5057 65° Northeast  Level FlightAware Approximate
11:22PM 60.6500 -47.2539 65° Northeast  Level FlightAware Approximate
11:23PM 60.7057 -47.0012 66° East  Level FlightAware Approximate
11:24PM 60.7610 -46.7476 66° East  Level FlightAware Approximate
11:25PM 60.8158 -46.4931 66° East  Level FlightAware Approximate
11:26PM 60.8701 -46.2378 66° East  Level FlightAware Approximate
11:27PM 60.9239 -45.9816 67° East  Level FlightAware Approximate
11:28PM 60.9772 -45.7245 67° East  Level FlightAware Approximate
11:29PM 61.0301 -45.4666 67° East  Level FlightAware Approximate
11:30PM 61.0824 -45.2079 67° East  Level FlightAware Approximate
11:31PM 61.1342 -44.9482 67° East  Level FlightAware Approximate
11:32PM 61.1856 -44.6877 68° East  Level FlightAware Approximate
11:33PM 61.2364 -44.4264 68° East  Level FlightAware Approximate
11:34PM 61.2868 -44.1642 68° East  Level FlightAware Approximate
11:35PM 61.3366 -43.9012 68° East  Level FlightAware Approximate
11:36PM 61.3859 -43.6374 69° East  Level FlightAware Approximate
11:37PM 61.4347 -43.3727 69° East  Level FlightAware Approximate
11:38PM 61.4830 -43.1072 69° East  Level FlightAware Approximate
11:39PM 61.5308 -42.8409 69° East  Level FlightAware Approximate
11:40PM 61.5781 -42.5738 70° East  Level FlightAware Approximate
11:41PM 61.6248 -42.3058 70° East  Level FlightAware Approximate
11:42PM 61.6710 -42.0371 70° East  Level FlightAware Approximate
11:43PM 61.7167 -41.7675 70° East  Level FlightAware Approximate
11:44PM 61.7618 -41.4972 70° East  Level FlightAware Approximate
11:45PM 61.8065 -41.2260 71° East  Level FlightAware Approximate
11:46PM 61.8505 -40.9541 71° East  Level FlightAware Approximate
11:47PM 61.8941 -40.6814 71° East  Level FlightAware Approximate
11:48PM 61.9371 -40.4080 71° East  Level FlightAware Approximate
11:49PM 61.9795 -40.1337 72° East  Level FlightAware Approximate
11:50PM 62.0327 -39.8688 62° Northeast  Level FlightAware Approximate
11:51PM 62.0960 -39.6125 62° Northeast  Level FlightAware Approximate
11:52PM 62.1588 -39.3551 62° Northeast  Level FlightAware Approximate
11:53PM 62.2211 -39.0967 63° Northeast  Level FlightAware Approximate
11:54PM 62.2830 -38.8372 63° Northeast  Level FlightAware Approximate
11:55PM 62.3444 -38.5766 63° Northeast  Level FlightAware Approximate
11:56PM 62.4053 -38.3150 63° Northeast  Level FlightAware Approximate
11:57PM 62.4656 -38.0523 63° Northeast  Level FlightAware Approximate
11:58PM 62.5256 -37.7886 64° Northeast  Level FlightAware Approximate
11:59PM 62.5849 -37.5238 64° Northeast  Level FlightAware Approximate
12:00AM 62.6438 -37.2579 64° Northeast  Level FlightAware Approximate
12:01AM 62.7022 -36.9910 64° Northeast  Level FlightAware Approximate
12:02AM 62.7601 -36.7230 65° Northeast  Level FlightAware Approximate
12:03AM 62.8175 -36.4540 65° Northeast  Level FlightAware Approximate
12:04AM 62.8742 -36.1838 65° Northeast  Level FlightAware Approximate
12:05AM 62.9301 -35.9123 66° East  Level FlightAware Approximate
12:06AM 62.9856 -35.6398 66° East  Level FlightAware Approximate
12:07AM 63.0405 -35.3663 66° East  Level FlightAware Approximate
12:08AM 63.0949 -35.0917 66° East  Level FlightAware Approximate
12:09AM 63.1487 -34.8161 67° East  Level FlightAware Approximate
12:10AM 63.2021 -34.5395 67° East  Level FlightAware Approximate
12:11AM 63.2548 -34.2619 67° East  Level FlightAware Approximate
12:12AM 63.3071 -33.9832 67° East  Level FlightAware Approximate
12:13AM 63.3588 -33.7036 67° East  Level FlightAware Approximate
12:14AM 63.4099 -33.4229 68° East  Level FlightAware Approximate
12:15AM 63.4609 -33.1416 67° East  Level FlightAware Approximate
12:16AM 63.5127 -32.8607 67° East  Level FlightAware Approximate
12:17AM 63.5641 -32.5787 68° East  Level FlightAware Approximate
12:18AM 63.6148 -32.2957 68° East  Level FlightAware Approximate
12:19AM 63.6651 -32.0117 68° East  Level FlightAware Approximate
12:20AM 63.7147 -31.7267 68° East  Level FlightAware Approximate
12:21AM 63.7638 -31.4407 69° East  Level FlightAware Approximate
12:22AM 63.8123 -31.1537 69° East  Level FlightAware Approximate
12:23AM 63.8603 -30.8657 69° East  Level FlightAware Approximate
12:24AM 63.9076 -30.5767 69° East  Level FlightAware Approximate
12:25AM 63.9544 -30.2868 70° East  Level FlightAware Approximate
12:26AM 64.0006 -29.9958 73° East  Level FlightAware Approximate
12:27AM 64.0405 -29.6996 73° East  Level FlightAware Approximate
12:28AM 64.0798 -29.4027 73° East  Level FlightAware Approximate
12:29AM 64.1186 -29.1048 73° East  Level FlightAware Approximate
12:30AM 64.1567 -28.8062 74° East  Level FlightAware Approximate
12:31AM 64.1942 -28.5067 74° East  Level FlightAware Approximate
12:32AM 64.2311 -28.2065 74° East  Level FlightAware Approximate
12:33AM 64.2674 -27.9054 74° East  Level FlightAware Approximate
12:34AM 64.3030 -27.6036 75° East  Level FlightAware Approximate
12:35AM 64.3381 -27.3009 75° East  Level FlightAware Approximate
12:36AM 64.3725 -26.9976 75° East  Level FlightAware Approximate
12:37AM 64.4063 -26.6935 75° East  Level FlightAware Approximate
12:38AM 64.4400 -26.3889 75° East  Level FlightAware Approximate
12:39AM 64.4731 -26.0836 76° East  Level FlightAware Approximate
12:40AM 64.5055 -25.7776 76° East  Level FlightAware Approximate
12:41AM 64.5372 -25.4708 76° East  Level FlightAware Approximate
12:42AM 64.5684 -25.1633 77° East  Level FlightAware Approximate
12:43AM 64.5989 -24.8552 77° East  Level FlightAware Approximate
12:44AM 64.6287 -24.5463 77° East  Level FlightAware Approximate
12:45AM 64.6579 -24.2368 77° East  Level FlightAware Approximate
12:46AM 64.6865 -23.9266 78° East  Level FlightAware Approximate
12:47AM 64.7144 -23.6158 78° East  Level FlightAware Approximate
12:48AM 64.7420 -23.3045 78° East  Level FlightAware Approximate
12:49AM 64.7697 -22.9929 78° East  Level FlightAware Approximate
12:50AM 64.7967 -22.6807 78° East  Level FlightAware Approximate
12:51AM 64.8231 -22.3678 79° East  Level FlightAware Approximate
12:52AM 64.8488 -22.0544 79° East  Level FlightAware Approximate
12:53AM 64.8739 -21.7404 79° East  Level FlightAware Approximate
12:54AM 64.8983 -21.4258 80° East  Level FlightAware Approximate
12:55AM 64.9220 -21.1106 80° East  Level FlightAware Approximate
12:56AM 64.9451 -20.7949 80° East  Level FlightAware Approximate
12:57AM 64.9675 -20.4787 80° East  Level FlightAware Approximate
12:58AM 64.9892 -20.1619 81° East  Level FlightAware Approximate
12:59AM 65.0048 -19.8432 86° East  Level FlightAware Approximate
01:00AM 65.0141 -19.5226 86° East  Level FlightAware Approximate
01:01AM 65.0228 -19.2019 86° East  Level FlightAware Approximate
01:02AM 65.0307 -18.8809 87° East  Level FlightAware Approximate
01:03AM 65.0379 -18.5598 87° East  Level FlightAware Approximate
01:04AM 65.0445 -18.2385 87° East  Level FlightAware Approximate
01:05AM 65.0504 -17.9171 87° East  Level FlightAware Approximate
01:06AM 65.0556 -17.5955 88° East  Level FlightAware Approximate
01:07AM 65.0601 -17.2738 88° East  Level FlightAware Approximate
01:08AM 65.0639 -16.9520 88° East  Level FlightAware Approximate
01:09AM 65.0671 -16.6301 88° East  Level FlightAware Approximate
01:10AM 65.0702 -16.3082 89° East  Level FlightAware Approximate
01:11AM 65.0727 -15.9862 89° East  Level FlightAware Approximate
01:12AM 65.0745 -15.6642 89° East  Level FlightAware Approximate
01:13AM 65.0756 -15.3421 89° East  Level FlightAware Approximate
01:14AM 65.0760 -15.0201 90° East  Level FlightAware Approximate
01:15AM 65.0757 -14.6980 90° East  Level FlightAware Approximate
01:16AM 65.0748 -14.3759 90° East  Level FlightAware Approximate
01:17AM 65.0731 -14.0539 91° East  Level FlightAware Approximate
01:18AM 65.0707 -13.7319 91° East  Level FlightAware Approximate
01:19AM 65.0677 -13.4099 91° East  Level FlightAware Approximate
01:20AM 65.0644 -13.0880 91° East  Level FlightAware Approximate
01:21AM 65.0607 -12.7662 91° East  Level FlightAware Approximate
01:22AM 65.0563 -12.4445 92° East  Level FlightAware Approximate
01:23AM 65.0512 -12.1229 92° East  Level FlightAware Approximate
01:24AM 65.0454 -11.8015 92° East  Level FlightAware Approximate
01:25AM 65.0389 -11.4802 93° East  Level FlightAware Approximate
01:26AM 65.0317 -11.1590 93° East  Level FlightAware Approximate
01:27AM 65.0238 -10.8380 93° East  Level FlightAware Approximate
01:28AM 65.0153 -10.5173 93° East  Level FlightAware Approximate
01:29AM 65.0060 -10.1967 94° East  Level FlightAware Approximate
01:30AM 65.0031 -9.8763 87° East  Level FlightAware Approximate
01:31AM 65.0107 -9.5555 87° East  Level FlightAware Approximate
01:32AM 65.0176 -9.2346 87° East  Level FlightAware Approximate
01:33AM 65.0238 -8.9135 87° East  Level FlightAware Approximate
01:34AM 65.0294 -8.5923 88° East  Level FlightAware Approximate
01:35AM 65.0348 -8.2710 87° East  Level FlightAware Approximate
01:36AM 65.0420 -7.9498 87° East  Level FlightAware Approximate
01:37AM 65.0485 -7.6284 87° East  Level FlightAware Approximate
01:38AM 65.0543 -7.3069 87° East  Level FlightAware Approximate
01:39AM 65.0594 -6.9853 88° East  Level FlightAware Approximate
01:40AM 65.0638 -6.6636 88° East  Level FlightAware Approximate
01:41AM 65.0676 -6.3417 88° East  Level FlightAware Approximate
01:42AM 65.0706 -6.0198 89° East  Level FlightAware Approximate
01:43AM 65.0730 -5.6978 89° East  Level FlightAware Approximate
01:44AM 65.0746 -5.3758 89° East  Level FlightAware Approximate
01:45AM 65.0756 -5.0537 89° East  Level FlightAware Approximate
01:46AM 65.0759 -4.7316 90° East  Level FlightAware Approximate
01:47AM 65.0754 -4.4095 90° East  Level FlightAware Approximate
01:48AM 65.0743 -4.0875 90° East  Level FlightAware Approximate
01:49AM 65.0725 -3.7654 91° East  Level FlightAware Approximate
01:50AM 65.0701 -3.4434 91° East  Level FlightAware Approximate
01:51AM 65.0669 -3.1215 91° East  Level FlightAware Approximate
01:52AM 65.0630 -2.7997 91° East  Level FlightAware Approximate
01:53AM 65.0584 -2.4780 92° East  Level FlightAware Approximate
01:54AM 65.0532 -2.1564 92° East  Level FlightAware Approximate
01:55AM 65.0472 -1.8349 92° East  Level FlightAware Approximate
01:56AM 65.0406 -1.5136 93° East  Level FlightAware Approximate
01:57AM 65.0333 -1.1924 93° East  Level FlightAware Approximate
01:58AM 65.0253 -0.8715 93° East  Level FlightAware Approximate
01:59AM 65.0166 -0.5507 94° East  Level FlightAware Approximate
02:00AM 65.0072 -0.2302 94° East  Level FlightAware Approximate
02:01AM 64.9943 0.0894 99° East  Level FlightAware Approximate
02:02AM 64.9734 0.4065 99° East  Level FlightAware Approximate
02:03AM 64.9519 0.7232 99° East  Level FlightAware Approximate
02:04AM 64.9297 1.0394 99° East  Level FlightAware Approximate
02:05AM 64.9069 1.3550 100° East  Level FlightAware Approximate
02:06AM 64.8834 1.6701 100° East  Level FlightAware Approximate
02:07AM 64.8592 1.9846 100° East  Level FlightAware Approximate
02:08AM 64.8343 2.2985 100° East  Level FlightAware Approximate
02:09AM 64.8088 2.6119 101° East  Level FlightAware Approximate
02:10AM 64.7827 2.9247 101° East  Level FlightAware Approximate
02:11AM 64.7559 3.2368 101° East  Level FlightAware Approximate
02:12AM 64.7284 3.5483 102° East  Level FlightAware Approximate
02:13AM 64.7003 3.8592 102° East  Level FlightAware Approximate
02:14AM 64.6715 4.1694 102° East  Level FlightAware Approximate
02:15AM 64.6421 4.4790 102° East  Level FlightAware Approximate
02:16AM 64.6120 4.7879 103° East  Level FlightAware Approximate
02:17AM 64.5813 5.0961 103° East  Level FlightAware Approximate
02:18AM 64.5499 5.4036 103° East  Level FlightAware Approximate
02:19AM 64.5179 5.7104 103° East  Level FlightAware Approximate
02:20AM 64.4853 6.0164 104° East  Level FlightAware Approximate
02:21AM 64.4520 6.3218 104° East  Level FlightAware Approximate
02:22AM 64.4181 6.6263 104° East  Level FlightAware Approximate
02:23AM 64.3836 6.9301 105° East  Level FlightAware Approximate
02:24AM 64.3484 7.2332 105° East  Level FlightAware Approximate
02:25AM 64.3126 7.5354 105° East  Level FlightAware Approximate
02:26AM 64.2762 7.8369 105° East  Level FlightAware Approximate
02:27AM 64.2392 8.1376 106° East  Level FlightAware Approximate
02:28AM 64.2016 8.4374 106° East  Level FlightAware Approximate
02:29AM 64.1633 8.7365 106° East  Level FlightAware Approximate
02:30AM 64.1245 9.0347 107° East  Level FlightAware Approximate
02:31AM 64.0850 9.3321 107° East  Level FlightAware Approximate
02:32AM 64.0450 9.6286 107° East  Level FlightAware Approximate
02:33AM 64.0043 9.9242 107° East  Level FlightAware Approximate
02:34AM 63.9630 10.2191 108° East  Level FlightAware Approximate
02:35AM 63.9211 10.5130 108° East  Level FlightAware Approximate
02:36AM 63.8787 10.8060 108° East  Level FlightAware Approximate
02:37AM 63.8356 11.0982 108° East  Level FlightAware Approximate
02:38AM 63.7920 11.3894 109° East  Level FlightAware Approximate
02:39AM 63.7478 11.6798 109° East  Level FlightAware Approximate
02:40AM 63.7030 11.9692 109° East  Level FlightAware Approximate
02:41AM 63.6576 12.2577 109° East  Level FlightAware Approximate
02:42AM 63.6116 12.5453 110° East  Level FlightAware Approximate
02:43AM 63.5651 12.8320 110° East  Level FlightAware Approximate
02:44AM 63.5180 13.1177 110° East  Level FlightAware Approximate
02:45AM 63.4703 13.4024 110° East  Level FlightAware Approximate
02:46AM 63.4221 13.6862 111° Southeast  Level FlightAware Approximate
02:47AM 63.3733 13.9691 111° Southeast  Level FlightAware Approximate
02:48AM 63.3240 14.2510 111° Southeast  Level FlightAware Approximate
02:49AM 63.2740 14.5319 111° Southeast  Level FlightAware Approximate
02:50AM 63.2236 14.8118 112° Southeast  Level FlightAware Approximate
02:51AM 63.1726 15.0908 112° Southeast  Level FlightAware Approximate
02:52AM 63.1210 15.3688 112° Southeast  Level FlightAware Approximate
02:53AM 63.0689 15.6458 112° Southeast  Level FlightAware Approximate
02:54AM 63.0163 15.9218 113° Southeast  Level FlightAware Approximate
02:55AM 62.9631 16.1968 113° Southeast  Level FlightAware Approximate
02:56AM 62.9094 16.4708 113° Southeast  Level FlightAware Approximate
02:57AM 62.8552 16.7437 113° Southeast  Level FlightAware Approximate
02:58AM 62.8004 17.0157 114° Southeast  Level FlightAware Approximate
02:59AM 62.7452 17.2867 114° Southeast  Level FlightAware Approximate
03:00AM 62.6894 17.5566 114° Southeast  Level FlightAware Approximate
03:01AM 62.6331 17.8255 114° Southeast  Level FlightAware Approximate
03:02AM 62.5762 18.0934 115° Southeast  Level FlightAware Approximate
03:03AM 62.5189 18.3603 115° Southeast  Level FlightAware Approximate
03:04AM 62.4610 18.6261 115° Southeast  Level FlightAware Approximate
03:05AM 62.4027 18.8909 115° Southeast  Level FlightAware Approximate
03:06AM 62.3438 19.1547 116° Southeast  Level FlightAware Approximate
03:07AM 62.2845 19.4174 116° Southeast  Level FlightAware Approximate
03:08AM 62.2247 19.6791 116° Southeast  Level FlightAware Approximate
03:09AM 62.1643 19.9398 116° Southeast  Level FlightAware Approximate
03:10AM 62.1035 20.1994 117° Southeast  Level FlightAware Approximate
03:11AM 62.0422 20.4580 117° Southeast  Level FlightAware Approximate
03:12AM 61.9804 20.7155 117° Southeast  Level FlightAware Approximate
03:13AM 61.9182 20.9720 117° Southeast  Level FlightAware Approximate
03:14AM 61.8554 21.2274 117° Southeast  Level FlightAware Approximate
03:15AM 61.7922 21.4818 118° Southeast  Level FlightAware Approximate
03:16AM 61.7285 21.7352 118° Southeast  Level FlightAware Approximate
03:17AM 61.6644 21.9875 118° Southeast  Level FlightAware Approximate
03:18AM 61.5998 22.2387 118° Southeast  Level FlightAware Approximate
03:19AM 61.5347 22.4889 119° Southeast  Level FlightAware Approximate
03:20AM 61.4692 22.7380 119° Southeast  Level FlightAware Approximate
03:21AM 61.4033 22.9861 119° Southeast  Level FlightAware Approximate
03:22AM 61.3368 23.2332 119° Southeast  Level FlightAware Approximate
03:23AM 61.2700 23.4792 119° Southeast  Level FlightAware Approximate
03:24AM 61.2026 23.7241 120° Southeast  Level FlightAware Approximate
03:25AM 61.1349 23.9680 120° Southeast  Level FlightAware Approximate
03:26AM 61.0667 24.2109 120° Southeast  Level FlightAware Approximate
03:27AM 60.9981 24.4527 120° Southeast  Level FlightAware Approximate
03:28AM 60.9290 24.6934 120° Southeast  Level FlightAware Approximate
03:29AM 60.8596 24.9331 121° Southeast  Level FlightAware Approximate
03:30AM 60.7896 25.1718 121° Southeast  Level FlightAware Approximate
03:31AM 60.7193 25.4094 121° Southeast  Level FlightAware Approximate
03:32AM 60.6486 25.6460 121° Southeast  Level FlightAware Approximate
03:33AM 60.5774 25.8816 122° Southeast  Level FlightAware Approximate
03:34AM 60.5058 26.1161 122° Southeast  Level FlightAware Approximate
03:35AM 60.4339 26.3496 122° Southeast  Level FlightAware Approximate
03:36AM 60.3615 26.5820 122° Southeast  Level FlightAware Approximate
03:37AM 60.2887 26.8134 122° Southeast  Level FlightAware Approximate
03:38AM 60.2155 27.0438 123° Southeast  Level FlightAware Approximate
03:39AM 60.1419 27.2731 123° Southeast  Level FlightAware Approximate
03:40AM 60.0679 27.5014 123° Southeast  Level FlightAware Approximate
03:41AM 59.9935 27.7287 123° Southeast  Level FlightAware Approximate
03:42AM 59.9188 27.9550 123° Southeast  Level FlightAware Approximate
03:43AM 59.8436 28.1802 124° Southeast  Level FlightAware Approximate
03:44AM 59.7681 28.4045 124° Southeast  Level FlightAware Approximate
03:45AM 59.6922 28.6277 124° Southeast  Level FlightAware Approximate
03:46AM 59.6159 28.8499 124° Southeast  Level FlightAware Approximate
03:47AM 59.5392 29.0711 124° Southeast  Level FlightAware Approximate
03:48AM 59.4622 29.2913 124° Southeast  Level FlightAware Approximate
03:49AM 59.3847 29.5105 125° Southeast  Level FlightAware Approximate
03:50AM 59.3070 29.7287 125° Southeast  Level FlightAware Approximate
03:51AM 59.2288 29.9459 125° Southeast  Level FlightAware Approximate
03:52AM 59.1503 30.1620 125° Southeast  Level FlightAware Approximate
03:53AM 59.0715 30.3772 125° Southeast  Level FlightAware Approximate
03:54AM 58.9923 30.5914 126° Southeast  Level FlightAware Approximate
03:55AM 58.9127 30.8047 126° Southeast  Level FlightAware Approximate
03:56AM 58.8328 31.0169 126° Southeast  Level FlightAware Approximate
03:57AM 58.7525 31.2282 126° Southeast  Level FlightAware Approximate
03:58AM 58.6719 31.4385 126° Southeast  Level FlightAware Approximate
03:59AM 58.5910 31.6478 127° Southeast  Level FlightAware Approximate
04:00AM 58.5097 31.8561 127° Southeast  Level FlightAware Approximate
04:01AM 58.4281 32.0635 127° Southeast  Level FlightAware Approximate
04:02AM 58.3461 32.2700 127° Southeast  Level FlightAware Approximate
04:03AM 58.2639 32.4754 127° Southeast  Level FlightAware Approximate
04:04AM 58.1813 32.6799 127° Southeast  Level FlightAware Approximate
04:05AM 58.0983 32.8835 128° Southeast  Level FlightAware Approximate
04:06AM 58.0151 33.0861 128° Southeast  Level FlightAware Approximate
04:07AM 57.9315 33.2878 128° Southeast  Level FlightAware Approximate
04:08AM 57.8476 33.4885 128° Southeast  Level FlightAware Approximate
04:09AM 57.7634 33.6883 128° Southeast  Level FlightAware Approximate
04:10AM 57.6789 33.8872 128° Southeast  Level FlightAware Approximate
04:11AM 57.5940 34.0851 129° Southeast  Level FlightAware Approximate
04:12AM 57.5089 34.2822 129° Southeast  Level FlightAware Approximate
04:13AM 57.4235 34.4783 129° Southeast  Level FlightAware Approximate
04:14AM 57.3377 34.6734 129° Southeast  Level FlightAware Approximate
04:15AM 57.2504 34.8658 130° Southeast  Level FlightAware Approximate
04:16AM 57.1676 35.0644 127° Southeast  Level FlightAware Approximate
04:17AM 57.0840 35.2565 131° Southeast  Level FlightAware Approximate
04:18AM 56.9950 35.4447 129° Southeast  Level FlightAware Approximate
04:19AM 56.9095 35.6381 129° Southeast  Level FlightAware Approximate
04:20AM 56.8237 35.8305 129° Southeast  Level FlightAware Approximate
04:21AM 56.7360 36.0196 131° Southeast  Level FlightAware Approximate
04:22AM 56.6474 36.2069 131° Southeast  Level FlightAware Approximate
04:23AM 56.5586 36.3933 131° Southeast  Level FlightAware Approximate
04:24AM 56.4698 36.5794 130° Southeast  Level FlightAware Approximate
04:25AM 56.3828 36.7678 132° Southeast  Level FlightAware Approximate
04:26AM 56.2920 36.9498 132° Southeast  Level FlightAware Approximate
04:27AM 56.1998 37.1291 134° Southeast  Level FlightAware Approximate